Time;durP1;ratioP1;P1;durP2;ratioP2;P2;SDS_P1;SDS_P2;PMS_P1;PMS_P2;Temp;Humidity;BMP_temperature;BMP_pressure;BME280_temperature;BME280_humidity;BME280_pressure;Samples;Min_cycle;Max_cycle;Signal;HPM_P1;HPM_P2
2023/10/21 00:00:08;;;;;;;1.92;1.30;;;0.80;99.90;;;;;;5086479;28;20195;-86
2023/10/21 00:02:39;;;;;;;5.40;1.88;;;0.70;99.90;;;;;;5085243;28;20752;-85
2023/10/21 00:05:07;;;;;;;2.45;1.52;;;0.80;99.90;;;;;;5084738;28;20274;-86
2023/10/21 00:07:35;;;;;;;3.40;1.63;;;0.80;99.90;;;;;;5074141;28;20262;-86
2023/10/21 00:10:06;;;;;;;4.32;1.80;;;0.80;99.90;;;;;;5086766;28;20198;-86
2023/10/21 00:12:35;;;;;;;3.30;2.05;;;0.70;99.90;;;;;;5087585;28;20299;-86
2023/10/21 00:15:07;;;;;;;4.03;1.73;;;0.80;99.90;;;;;;5083325;28;20857;-85
2023/10/21 00:17:35;;;;;;;3.95;1.42;;;0.80;99.90;;;;;;5090391;28;20196;-86
2023/10/21 00:20:06;;;;;;;2.38;1.50;;;0.70;99.90;;;;;;5084871;28;20196;-86
2023/10/21 00:22:35;;;;;;;2.40;1.58;;;0.70;99.90;;;;;;5085743;28;20307;-86
2023/10/21 00:25:04;;;;;;;6.13;1.73;;;0.70;99.90;;;;;;5084469;28;20188;-86
2023/10/21 00:27:32;;;;;;;6.82;1.70;;;0.80;99.90;;;;;;5085115;28;20249;-86
2023/10/21 00:29:59;;;;;;;2.45;1.35;;;0.80;99.90;;;;;;5082641;28;20185;-86
2023/10/21 00:32:27;;;;;;;3.08;1.83;;;0.80;99.90;;;;;;5078862;28;20192;-86
2023/10/21 00:34:55;;;;;;;3.10;1.85;;;0.70;99.90;;;;;;5083575;28;20792;-86
2023/10/21 00:37:23;;;;;;;6.20;1.77;;;0.80;99.90;;;;;;5076522;28;20208;-85
2023/10/21 00:39:50;;;;;;;4.10;1.40;;;0.90;99.90;;;;;;5084355;28;20202;-86
2023/10/21 00:42:18;;;;;;;4.10;1.80;;;0.80;99.90;;;;;;5078387;28;20303;-86
2023/10/21 00:44:46;;;;;;;2.80;1.60;;;0.80;99.90;;;;;;5081148;28;20189;-85
2023/10/21 00:47:15;;;;;;;3.50;1.70;;;0.80;99.90;;;;;;5081085;28;20203;-86
2023/10/21 00:49:42;;;;;;;3.63;1.90;;;0.70;99.90;;;;;;5074387;28;20699;-86
2023/10/21 00:52:13;;;;;;;3.83;1.80;;;0.70;99.90;;;;;;5064857;28;20220;-85
2023/10/21 00:54:41;;;;;;;2.03;1.40;;;0.70;99.90;;;;;;5080790;28;20578;-86
2023/10/21 00:57:09;;;;;;;3.20;1.60;;;0.80;99.90;;;;;;5070207;28;20199;-85
2023/10/21 00:59:40;;;;;;;2.60;1.80;;;0.80;99.90;;;;;;5063970;28;20295;-85
2023/10/21 01:02:12;;;;;;;2.78;1.70;;;0.70;99.90;;;;;;5051212;28;20262;-86
2023/10/21 01:04:41;;;;;;;7.88;2.25;;;0.70;99.90;;;;;;5075360;28;20201;-86
2023/10/21 01:07:17;;;;;;;6.05;1.98;;;0.70;99.90;;;;;;5080950;28;20222;-86
2023/10/21 01:09:44;;;;;;;2.33;1.23;;;0.70;99.90;;;;;;5085027;28;20801;-86
2023/10/21 01:12:12;;;;;;;3.33;1.73;;;0.70;99.90;;;;;;5083115;28;20188;-85
2023/10/21 01:14:40;;;;;;;3.85;1.83;;;0.70;99.90;;;;;;5082731;28;20191;-86
2023/10/21 01:17:08;;;;;;;5.38;2.10;;;0.70;99.90;;;;;;5081195;28;20207;-86
2023/10/21 01:19:36;;;;;;;3.22;1.50;;;0.80;99.90;;;;;;5085022;28;20669;-85
2023/10/21 01:22:03;;;;;;;4.22;1.40;;;0.70;99.90;;;;;;5081239;28;20207;-86
2023/10/21 01:24:31;;;;;;;1.92;1.25;;;0.60;99.90;;;;;;5071409;28;20191;-86
2023/10/21 01:26:59;;;;;;;4.38;1.45;;;0.60;99.90;;;;;;5067525;28;20253;-85
2023/10/21 01:29:26;;;;;;;4.22;1.75;;;0.70;99.90;;;;;;5082413;28;20183;-86
2023/10/21 01:31:55;;;;;;;2.65;1.40;;;0.70;99.90;;;;;;5066999;28;20188;-86
2023/10/21 01:34:22;;;;;;;4.70;1.60;;;0.70;99.90;;;;;;5080723;28;20221;-85
2023/10/21 01:36:50;;;;;;;5.90;1.45;;;0.70;99.90;;;;;;5062390;28;20293;-85
2023/10/21 01:39:18;;;;;;;1.85;1.20;;;0.70;99.90;;;;;;5083011;28;20200;-86
2023/10/21 01:41:46;;;;;;;3.50;1.70;;;0.70;99.90;;;;;;5080980;28;20725;-86
2023/10/21 01:44:15;;;;;;;5.55;1.70;;;0.80;99.90;;;;;;5081115;28;20187;-85
2023/10/21 01:46:43;;;;;;;3.75;1.77;;;0.80;99.90;;;;;;5083167;28;20295;-85
2023/10/21 01:49:10;;;;;;;3.45;1.55;;;0.80;99.90;;;;;;5089508;28;20197;-84
2023/10/21 01:51:38;;;;;;;3.47;1.85;;;0.80;99.90;;;;;;5080469;28;20185;-85
2023/10/21 01:54:06;;;;;;;5.57;1.83;;;0.70;99.90;;;;;;5079588;28;20197;-85
2023/10/21 01:56:34;;;;;;;2.60;1.60;;;0.70;99.90;;;;;;5082110;28;20273;-85
2023/10/21 01:59:02;;;;;;;2.45;1.52;;;0.70;99.90;;;;;;5080037;28;20269;-85
2023/10/21 02:01:29;;;;;;;3.72;1.83;;;0.60;99.90;;;;;;5079706;28;20199;-86
2023/10/21 02:03:57;;;;;;;5.47;1.98;;;0.70;99.90;;;;;;5085700;28;20377;-86
2023/10/21 02:06:25;;;;;;;2.50;1.45;;;0.80;99.90;;;;;;5073143;28;20322;-85
2023/10/21 02:08:56;;;;;;;3.55;1.67;;;0.70;99.90;;;;;;5070462;28;20203;-86
2023/10/21 02:11:24;;;;;;;2.70;1.58;;;0.70;99.90;;;;;;5076095;28;20192;-86
2023/10/21 02:13:51;;;;;;;3.55;1.55;;;0.70;99.90;;;;;;5079587;28;20283;-86
2023/10/21 02:16:20;;;;;;;4.47;1.48;;;0.60;99.90;;;;;;5078477;28;20191;-86
2023/10/21 02:18:48;;;;;;;2.38;1.50;;;0.70;99.90;;;;;;5078339;28;20180;-85
2023/10/21 02:21:16;;;;;;;4.75;1.77;;;0.70;99.90;;;;;;5090220;28;20269;-86
2023/10/21 02:23:44;;;;;;;2.38;1.50;;;0.70;99.90;;;;;;5075517;28;20277;-85
2023/10/21 02:26:12;;;;;;;3.00;1.52;;;0.60;99.90;;;;;;5090115;28;20274;-84
2023/10/21 02:28:39;;;;;;;1.95;1.50;;;0.60;99.90;;;;;;5077404;28;20227;-85
2023/10/21 02:31:07;;;;;;;4.22;1.77;;;0.70;99.90;;;;;;5080857;28;20742;-85
2023/10/21 02:33:35;;;;;;;3.45;1.70;;;0.60;99.90;;;;;;5067704;28;20216;-85
2023/10/21 02:36:03;;;;;;;3.38;1.70;;;0.60;99.90;;;;;;5054667;28;20204;-85
2023/10/21 02:38:34;;;;;;;3.47;1.70;;;0.60;99.90;;;;;;5056617;28;20211;-85
2023/10/21 02:41:05;;;;;;;3.45;1.98;;;0.70;99.90;;;;;;5078955;28;20226;-85
2023/10/21 02:43:33;;;;;;;3.00;1.77;;;0.60;99.90;;;;;;5063929;28;20554;-85
2023/10/21 02:46:08;;;;;;;5.80;2.03;;;0.60;99.90;;;;;;5064274;28;20192;-85
2023/10/21 02:48:39;;;;;;;3.97;1.50;;;0.70;99.90;;;;;;5078821;28;21094;-85
2023/10/21 02:51:10;;;;;;;4.97;2.08;;;0.70;99.90;;;;;;5067762;28;20200;-86
2023/10/21 02:53:39;;;;;;;4.78;1.83;;;0.70;99.90;;;;;;5069853;28;20188;-85
2023/10/21 02:56:08;;;;;;;6.72;2.22;;;0.60;99.90;;;;;;5064015;28;20212;-86
2023/10/21 02:58:37;;;;;;;2.97;2.03;;;0.60;99.90;;;;;;5082885;28;20179;-85
2023/10/21 03:01:14;;;;;;;4.13;2.20;;;0.60;99.90;;;;;;5077711;28;20193;-86
2023/10/21 03:03:43;;;;;;;6.40;2.40;;;0.70;99.90;;;;;;5071237;28;20299;-85
2023/10/21 03:06:12;;;;;;;4.03;2.13;;;0.60;99.90;;;;;;5080972;28;20185;-85
2023/10/21 03:08:40;;;;;;;4.22;2.00;;;0.60;99.90;;;;;;5067256;28;20223;-85
2023/10/21 03:11:09;;;;;;;3.75;2.25;;;0.60;99.90;;;;;;5079320;28;20209;-86
2023/10/21 03:13:38;;;;;;;5.60;2.50;;;0.60;99.90;;;;;;5082854;28;20250;-84
2023/10/21 03:16:13;;;;;;;5.05;2.20;;;0.60;99.90;;;;;;5069050;28;20231;-86
2023/10/21 03:18:42;;;;;;;5.47;2.17;;;0.60;99.90;;;;;;5077382;28;20199;-86
2023/10/21 03:21:10;;;;;;;3.63;2.10;;;0.50;99.90;;;;;;5066237;28;20194;-85
2023/10/21 03:23:38;;;;;;;5.47;1.90;;;0.60;99.90;;;;;;5071412;28;20223;-85
2023/10/21 03:26:07;;;;;;;3.97;1.98;;;0.50;99.90;;;;;;5073233;28;20304;-86
2023/10/21 03:28:35;;;;;;;5.18;2.47;;;0.60;99.90;;;;;;5081759;28;20219;-84
2023/10/21 03:31:06;;;;;;;5.30;1.98;;;0.50;99.90;;;;;;5083396;28;20248;-84
2023/10/21 03:33:34;;;;;;;6.60;2.28;;;0.60;99.90;;;;;;5078491;28;20690;-85
2023/10/21 03:36:07;;;;;;;3.88;2.03;;;0.60;99.90;;;;;;5071149;28;20260;-85
2023/10/21 03:38:35;;;;;;;5.28;2.28;;;0.50;99.90;;;;;;5084998;28;20192;-85
2023/10/21 03:41:08;;;;;;;3.53;2.00;;;0.50;99.90;;;;;;5083158;28;20196;-85
2023/10/21 03:43:36;;;;;;;5.80;2.53;;;0.50;99.90;;;;;;5068121;28;20199;-85
2023/10/21 03:46:05;;;;;;;5.57;2.10;;;0.40;99.90;;;;;;5082467;28;20199;-86
2023/10/21 03:48:34;;;;;;;7.25;2.60;;;0.50;99.90;;;;;;5065630;28;20204;-85
2023/10/21 03:51:09;;;;;;;6.50;2.17;;;0.40;99.90;;;;;;5073319;28;20195;-85
2023/10/21 03:53:40;;;;;;;4.97;2.55;;;0.60;99.90;;;;;;5087313;28;20184;-85
2023/10/21 03:56:09;;;;;;;5.25;2.22;;;0.50;99.90;;;;;;5069041;28;20195;-84
2023/10/21 03:58:38;;;;;;;4.22;2.28;;;0.50;99.90;;;;;;5082426;28;20188;-85
2023/10/21 04:01:07;;;;;;;3.85;1.85;;;0.50;99.90;;;;;;5073941;28;20196;-84
2023/10/21 04:03:35;;;;;;;6.20;2.63;;;0.40;99.90;;;;;;5079539;28;20192;-85
2023/10/21 04:06:04;;;;;;;4.38;2.45;;;0.40;99.90;;;;;;5075494;28;20195;-85
2023/10/21 04:08:33;;;;;;;5.07;2.47;;;0.40;99.90;;;;;;5080722;28;20741;-85
2023/10/21 04:11:01;;;;;;;4.13;2.35;;;0.40;99.90;;;;;;5079823;28;20676;-85
2023/10/21 04:13:29;;;;;;;5.90;2.10;;;0.40;99.90;;;;;;5074811;28;20554;-86
2023/10/21 04:15:57;;;;;;;5.88;2.50;;;0.40;99.90;;;;;;5077554;28;20878;-85
2023/10/21 04:18:25;;;;;;;7.22;2.38;;;0.50;99.90;;;;;;5082891;28;20187;-86
2023/10/21 04:20:55;;;;;;;5.30;2.72;;;0.50;99.90;;;;;;5084338;28;20183;-85
2023/10/21 04:23:24;;;;;;;8.90;2.20;;;0.50;99.90;;;;;;5074079;28;20192;-85
2023/10/21 04:25:52;;;;;;;4.22;2.33;;;0.40;99.90;;;;;;5085860;28;20402;-85
2023/10/21 04:28:20;;;;;;;4.07;2.50;;;0.40;99.90;;;;;;5085283;28;20845;-85
2023/10/21 04:30:48;;;;;;;5.10;2.35;;;0.30;99.90;;;;;;5081606;28;20743;-86
2023/10/21 04:33:15;;;;;;;3.38;2.25;;;0.40;99.90;;;;;;5081279;28;20184;-86
2023/10/21 04:35:43;;;;;;;9.57;3.03;;;0.30;99.90;;;;;;5084219;28;20212;-87
2023/10/21 04:38:11;;;;;;;4.88;2.47;;;0.40;99.90;;;;;;5079915;28;20196;-83
2023/10/21 04:40:39;;;;;;;5.50;2.30;;;0.40;99.90;;;;;;5064963;28;20188;-83
2023/10/21 04:43:10;;;;;;;6.05;2.63;;;0.40;99.90;;;;;;5078133;28;20206;-83
2023/10/21 04:45:38;;;;;;;5.57;2.67;;;0.50;99.90;;;;;;5064799;28;20323;-83
2023/10/21 04:48:06;;;;;;;4.25;2.60;;;0.40;99.90;;;;;;5080579;28;20705;-83
2023/10/21 04:50:34;;;;;;;5.55;2.40;;;0.50;99.90;;;;;;5080417;28;20188;-84
2023/10/21 04:53:02;;;;;;;4.03;2.35;;;0.50;99.90;;;;;;5079529;28;20176;-83
2023/10/21 04:55:30;;;;;;;4.65;2.00;;;0.40;99.90;;;;;;5092451;28;20184;-83
2023/10/21 04:57:58;;;;;;;4.20;2.60;;;0.40;99.90;;;;;;5065104;28;20188;-83
2023/10/21 05:00:26;;;;;;;4.65;2.50;;;0.40;99.90;;;;;;5064331;28;20188;-83
2023/10/21 05:02:53;;;;;;;4.82;2.53;;;0.30;99.90;;;;;;5078917;28;20203;-81
2023/10/21 05:05:21;;;;;;;4.43;2.30;;;0.40;99.90;;;;;;5081183;28;20202;-82
2023/10/21 05:07:49;;;;;;;4.40;2.38;;;0.50;99.90;;;;;;5064229;28;20210;-82
2023/10/21 05:10:18;;;;;;;5.88;2.80;;;0.50;99.90;;;;;;5081557;28;20188;-82
2023/10/21 05:12:45;;;;;;;4.53;2.40;;;0.40;99.90;;;;;;5082365;28;20180;-82
2023/10/21 05:15:13;;;;;;;5.28;2.58;;;0.40;99.90;;;;;;5081436;28;20325;-83
2023/10/21 05:17:41;;;;;;;5.97;2.40;;;0.40;99.90;;;;;;5082841;28;20334;-81
2023/10/21 05:20:09;;;;;;;5.55;2.80;;;0.40;99.90;;;;;;5082673;28;20191;-82
2023/10/21 05:22:37;;;;;;;7.15;2.67;;;0.50;99.90;;;;;;5080142;28;20199;-82
2023/10/21 05:25:06;;;;;;;5.15;2.70;;;0.50;99.90;;;;;;5081848;28;20275;-82
2023/10/21 05:27:34;;;;;;;4.10;2.50;;;0.50;99.90;;;;;;5082746;28;20293;-83
2023/10/21 05:30:03;;;;;;;3.65;2.42;;;0.50;99.90;;;;;;5080707;28;20609;-83
2023/10/21 05:32:31;;;;;;;5.07;2.72;;;0.50;99.90;;;;;;5082160;28;20637;-83
2023/10/21 05:34:59;;;;;;;23.17;7.50;;;0.40;99.90;;;;;;5084667;28;20239;-83
2023/10/21 05:37:27;;;;;;;5.65;3.10;;;0.50;99.90;;;;;;5082352;28;20192;-82
2023/10/21 05:39:56;;;;;;;15.02;5.85;;;0.40;99.90;;;;;;5078654;28;20188;-83
2023/10/21 05:42:24;;;;;;;6.97;4.47;;;0.60;99.90;;;;;;5073496;28;20280;-84
2023/10/21 05:44:52;;;;;;;22.75;15.35;;;0.50;99.90;;;;;;5069894;28;20188;-83
2023/10/21 05:47:20;;;;;;;10.32;5.20;;;0.50;99.90;;;;;;5068792;28;20189;-83
2023/10/21 05:49:47;;;;;;;8.00;3.97;;;0.60;99.90;;;;;;5074787;28;20963;-83
2023/10/21 05:52:15;;;;;;;12.63;8.90;;;0.60;99.90;;;;;;5082363;28;20763;-83
2023/10/21 05:54:43;;;;;;;6.72;4.53;;;0.50;99.90;;;;;;5081569;28;20245;-85
2023/10/21 05:57:11;;;;;;;7.63;3.85;;;0.40;99.90;;;;;;5080732;28;20650;-84
2023/10/21 05:59:39;;;;;;;7.60;5.20;;;0.60;99.90;;;;;;5081525;28;20184;-84
2023/10/21 06:02:08;;;;;;;6.00;3.40;;;0.40;99.90;;;;;;5080007;28;20194;-83
2023/10/21 06:04:36;;;;;;;9.32;4.43;;;0.50;99.90;;;;;;5058264;28;20564;-86
2023/10/21 06:07:04;;;;;;;12.30;6.38;;;0.50;99.90;;;;;;5052243;28;20252;-85
2023/10/21 06:09:32;;;;;;;7.75;4.70;;;0.50;99.90;;;;;;5065449;28;20249;-86
2023/10/21 06:11:59;;;;;;;6.15;2.75;;;0.50;99.90;;;;;;5080270;28;20278;-84
2023/10/21 06:14:27;;;;;;;7.45;4.10;;;0.60;99.90;;;;;;5070516;28;20180;-85
2023/10/21 06:16:55;;;;;;;6.82;4.85;;;0.50;99.90;;;;;;5063339;28;20184;-85
2023/10/21 06:19:23;;;;;;;6.47;4.70;;;0.60;99.90;;;;;;5080803;28;20196;-84
2023/10/21 06:21:50;;;;;;;8.15;4.70;;;0.60;99.90;;;;;;5065085;28;20298;-85
2023/10/21 06:24:19;;;;;;;4.90;3.67;;;0.60;99.90;;;;;;5081795;28;20587;-84
2023/10/21 06:26:50;;;;;;;5.93;3.15;;;0.50;99.90;;;;;;5078954;28;20260;-86
2023/10/21 06:29:20;;;;;;;10.90;6.05;;;0.40;99.90;;;;;;5080198;28;20235;-85
2023/10/21 06:31:50;;;;;;;15.95;9.77;;;0.50;99.90;;;;;;5079034;28;20199;-86
2023/10/21 06:34:21;;;;;;;13.55;6.88;;;0.50;99.90;;;;;;5082550;28;20228;-85
2023/10/21 06:36:49;;;;;;;5.88;4.03;;;0.50;99.90;;;;;;5076708;28;20186;-85
2023/10/21 06:39:18;;;;;;;8.20;4.72;;;0.60;99.90;;;;;;5080360;28;20218;-85
2023/10/21 06:41:46;;;;;;;7.78;6.57;;;0.50;99.90;;;;;;5082868;28;20266;-85
2023/10/21 06:44:17;;;;;;;7.55;4.40;;;0.40;99.90;;;;;;5069561;28;20231;-85
2023/10/21 06:46:45;;;;;;;5.82;4.18;;;0.40;99.90;;;;;;5086475;28;20187;-85
2023/10/21 06:49:13;;;;;;;7.43;5.93;;;0.50;99.90;;;;;;5086305;28;20593;-85
2023/10/21 06:51:41;;;;;;;7.55;5.53;;;0.50;99.90;;;;;;5086103;28;20180;-85
2023/10/21 06:54:10;;;;;;;7.15;4.18;;;0.50;99.90;;;;;;5081980;28;20207;-86
2023/10/21 06:56:38;;;;;;;9.82;4.18;;;0.50;99.90;;;;;;5083275;28;20180;-87
2023/10/21 06:59:05;;;;;;;5.45;4.10;;;0.50;99.90;;;;;;5084360;28;20225;-86
2023/10/21 07:01:34;;;;;;;9.05;5.50;;;0.50;99.90;;;;;;5086261;28;20597;-85
2023/10/21 07:04:03;;;;;;;8.68;5.50;;;0.50;99.90;;;;;;5080179;28;20199;-86
2023/10/21 07:06:31;;;;;;;6.35;4.53;;;0.50;99.90;;;;;;5063590;28;20192;-85
2023/10/21 07:08:59;;;;;;;11.95;6.45;;;0.60;99.90;;;;;;5083864;28;20219;-85
2023/10/21 07:11:27;;;;;;;7.30;4.38;;;0.50;99.90;;;;;;5097206;28;20184;-87
2023/10/21 07:13:55;;;;;;;6.15;3.55;;;0.60;99.90;;;;;;5084698;28;20934;-85
2023/10/21 07:16:23;;;;;;;6.55;3.70;;;0.50;99.90;;;;;;5068766;28;20188;-85
2023/10/21 07:18:50;;;;;;;9.40;4.82;;;0.50;99.90;;;;;;5087214;28;20175;-86
2023/10/21 07:21:19;;;;;;;9.25;6.00;;;0.40;99.90;;;;;;5071950;28;20199;-88
2023/10/21 07:23:47;;;;;;;6.32;4.50;;;0.60;99.90;;;;;;5072530;28;20195;-86
2023/10/21 07:26:15;;;;;;;6.97;4.55;;;0.50;99.90;;;;;;5085923;28;20187;-86
2023/10/21 07:28:44;;;;;;;11.50;7.40;;;0.60;99.90;;;;;;5080300;28;20281;-87
2023/10/21 07:31:12;;;;;;;6.75;3.30;;;0.70;99.90;;;;;;5081726;28;20191;-85
2023/10/21 07:33:40;;;;;;;8.25;3.63;;;0.60;99.90;;;;;;5092411;28;20224;-87
2023/10/21 07:36:08;;;;;;;6.75;3.35;;;0.60;99.90;;;;;;5088568;28;20279;-87
2023/10/21 07:38:36;;;;;;;7.95;4.05;;;0.70;99.90;;;;;;5071544;28;20203;-88
2023/10/21 07:41:14;;;;;;;4.85;3.05;;;0.60;99.90;;;;;;5071778;28;20205;-87
2023/10/21 07:43:42;;;;;;;6.13;4.20;;;0.60;99.90;;;;;;5087642;28;20195;-87
2023/10/21 07:46:10;;;;;;;5.07;3.38;;;0.60;99.90;;;;;;5088243;28;20188;-87
2023/10/21 07:48:39;;;;;;;8.27;4.88;;;0.60;99.90;;;;;;5075805;28;20235;-84
2023/10/21 07:51:07;;;;;;;10.15;5.07;;;0.60;99.90;;;;;;5081925;28;20686;-84
2023/10/21 07:53:35;;;;;;;7.63;3.00;;;0.50;99.90;;;;;;5082626;28;20203;-84
2023/10/21 07:56:03;;;;;;;6.60;3.60;;;0.70;99.90;;;;;;5086261;28;20184;-83
2023/10/21 07:58:31;;;;;;;5.93;3.05;;;0.70;99.90;;;;;;5085464;28;20784;-83
2023/10/21 08:01:00;;;;;;;5.07;2.78;;;0.60;99.90;;;;;;5084097;28;20270;-83
2023/10/21 08:03:29;;;;;;;8.18;2.80;;;0.60;99.90;;;;;;5083941;28;20202;-83
2023/10/21 08:05:57;;;;;;;5.35;2.47;;;0.70;99.90;;;;;;5084325;28;20184;-81
2023/10/21 08:08:26;;;;;;;5.93;2.60;;;0.70;99.90;;;;;;5067372;28;20570;-83
2023/10/21 08:11:03;;;;;;;4.50;2.38;;;0.70;99.90;;;;;;5084949;28;20192;-83
2023/10/21 08:13:33;;;;;;;4.32;2.42;;;0.70;99.90;;;;;;5079784;28;20475;-83
2023/10/21 08:16:04;;;;;;;8.13;3.10;;;0.80;99.90;;;;;;5085685;28;20653;-84
2023/10/21 08:18:32;;;;;;;4.15;2.67;;;0.70;99.90;;;;;;5084808;28;20202;-83
2023/10/21 08:21:00;;;;;;;6.68;3.00;;;0.70;99.90;;;;;;5067256;28;20543;-83
2023/10/21 08:23:32;;;;;;;5.55;2.42;;;0.70;99.90;;;;;;5083332;28;20187;-83
2023/10/21 08:26:00;;;;;;;4.97;2.35;;;0.70;99.90;;;;;;5084786;28;20184;-84
2023/10/21 08:28:28;;;;;;;4.63;2.25;;;0.80;99.90;;;;;;5085424;28;20252;-84
2023/10/21 08:30:55;;;;;;;3.65;2.28;;;0.80;99.90;;;;;;5084370;28;20187;-82
2023/10/21 08:33:24;;;;;;;3.47;2.40;;;0.70;99.90;;;;;;5080481;28;20189;-83
2023/10/21 08:35:52;;;;;;;3.97;2.00;;;0.80;99.90;;;;;;5048407;28;20195;-83
2023/10/21 08:38:20;;;;;;;5.25;1.90;;;0.70;99.90;;;;;;5082160;28;20238;-82
2023/10/21 08:40:49;;;;;;;5.03;2.30;;;0.70;99.90;;;;;;5066110;28;20870;-83
2023/10/21 08:43:18;;;;;;;4.22;2.10;;;0.80;99.90;;;;;;5083177;28;20188;-84
2023/10/21 08:45:47;;;;;;;5.93;2.40;;;0.80;99.90;;;;;;5076874;28;20184;-82
2023/10/21 08:48:17;;;;;;;8.13;3.08;;;0.80;99.90;;;;;;5083279;28;20713;-81
2023/10/21 08:50:49;;;;;;;6.32;2.42;;;0.80;99.90;;;;;;5079501;28;20829;-80
2023/10/21 08:53:17;;;;;;;4.53;2.35;;;0.80;99.90;;;;;;5079019;28;20185;-81
2023/10/21 08:55:46;;;;;;;3.53;2.22;;;0.80;99.90;;;;;;5081808;28;20183;-81
2023/10/21 08:58:15;;;;;;;5.97;2.47;;;0.90;99.90;;;;;;5078056;28;20787;-81
2023/10/21 09:00:43;;;;;;;3.85;1.90;;;0.90;99.90;;;;;;5078661;28;20188;-82
2023/10/21 09:03:13;;;;;;;4.85;2.83;;;0.90;99.90;;;;;;5074317;28;20823;-82
2023/10/21 09:06:07;;;;;;;4.07;2.55;;;1.00;99.90;;;;;;5070604;28;20188;-81
2023/10/21 09:08:41;;;;;;;4.05;2.05;;;0.90;99.90;;;;;;5078882;28;21028;-81
2023/10/21 09:11:11;;;;;;;5.43;2.10;;;0.90;99.90;;;;;;5080412;28;20763;-80
2023/10/21 09:13:41;;;;;;;7.50;2.67;;;0.90;99.90;;;;;;5079525;28;20653;-82
2023/10/21 09:16:23;;;;;;;5.50;2.22;;;1.00;99.90;;;;;;5083176;28;20265;-81
2023/10/21 09:19:03;;;;;;;5.30;2.80;;;1.00;99.90;;;;;;5097158;27;20184;-81
2023/10/21 09:21:33;;;;;;;4.70;2.50;;;1.00;99.90;;;;;;5075914;28;20184;-80
2023/10/21 09:24:02;;;;;;;5.97;2.92;;;1.00;99.90;;;;;;5073411;28;20192;-80
2023/10/21 09:26:38;;;;;;;7.45;3.03;;;1.00;99.90;;;;;;5077162;28;20670;-81
2023/10/21 09:29:11;;;;;;;5.15;2.90;;;1.00;99.90;;;;;;5070990;28;20201;-81
2023/10/21 09:31:54;;;;;;;6.15;2.50;;;1.00;99.90;;;;;;5072240;28;20216;-82
2023/10/21 09:34:27;;;;;;;5.55;3.08;;;1.00;99.90;;;;;;5077470;28;20224;-80
2023/10/21 09:37:03;;;;;;;5.47;2.67;;;1.00;99.90;;;;;;5078918;28;20177;-80
2023/10/21 09:39:33;;;;;;;4.90;2.38;;;1.00;99.90;;;;;;5081913;28;20206;-82
2023/10/21 09:42:04;;;;;;;5.13;2.70;;;1.10;99.90;;;;;;5074149;28;20663;-82
2023/10/21 09:44:38;;;;;;;3.88;2.60;;;1.10;99.90;;;;;;5076713;28;20188;-82
2023/10/21 09:47:08;;;;;;;3.22;1.95;;;1.10;99.90;;;;;;5084248;28;20688;-84
2023/10/21 09:49:38;;;;;;;4.05;2.40;;;1.10;99.90;;;;;;5082527;28;20203;-82
2023/10/21 09:52:20;;;;;;;3.75;2.13;;;1.10;99.90;;;;;;5077342;28;20284;-83
2023/10/21 09:55:02;;;;;;;3.55;2.22;;;1.10;99.90;;;;;;5076135;28;20184;-82
2023/10/21 09:57:44;;;;;;;4.40;2.25;;;1.10;99.90;;;;;;5081790;28;20187;-83
2023/10/21 10:00:12;;;;;;;3.88;2.25;;;1.10;99.90;;;;;;5064947;28;20203;-83
2023/10/21 10:02:47;;;;;;;4.13;2.20;;;1.10;99.90;;;;;;5083215;28;20255;-83
2023/10/21 10:05:17;;;;;;;4.00;2.08;;;1.10;99.90;;;;;;5080623;28;20270;-82
2023/10/21 10:07:48;;;;;;;3.22;2.05;;;1.10;99.90;;;;;;5082415;28;21000;-83
2023/10/21 10:10:21;;;;;;;4.75;2.08;;;1.10;99.90;;;;;;5081830;28;20310;-82
2023/10/21 10:13:12;;;;;;;4.70;1.88;;;1.10;99.90;;;;;;5061048;28;20187;-82
2023/10/21 10:15:41;;;;;;;5.80;2.40;;;1.10;99.90;;;;;;5079488;28;20206;-82
2023/10/21 10:18:18;;;;;;;4.18;2.25;;;1.20;99.90;;;;;;5082969;28;20191;-82
2023/10/21 10:20:49;;;;;;;4.80;2.40;;;1.20;99.90;;;;;;5060941;28;20195;-82
2023/10/21 10:23:24;;;;;;;4.95;2.40;;;1.20;99.90;;;;;;5062291;28;20208;-82
2023/10/21 10:25:57;;;;;;;6.85;2.80;;;1.20;99.90;;;;;;5064917;28;20777;-82
2023/10/21 10:28:29;;;;;;;4.50;2.25;;;1.30;99.90;;;;;;5064812;28;20595;-83
2023/10/21 10:31:07;;;;;;;4.20;2.30;;;1.30;99.90;;;;;;5066383;28;20212;-82
2023/10/21 10:33:35;;;;;;;4.10;2.38;;;1.30;99.90;;;;;;5061125;28;20303;-82
2023/10/21 10:36:06;;;;;;;5.07;2.10;;;1.30;99.90;;;;;;5081289;28;20246;-83
2023/10/21 10:38:47;;;;;;;4.63;2.58;;;1.30;99.90;;;;;;5064618;28;20199;-82
2023/10/21 10:41:21;;;;;;;4.63;2.50;;;1.30;99.90;;;;;;5072412;28;20736;-83
2023/10/21 10:44:01;;;;;;;3.35;1.98;;;1.40;99.90;;;;;;5079055;28;20748;-83
2023/10/21 10:46:31;;;;;;;3.38;1.60;;;1.30;99.90;;;;;;5080041;28;20577;-82
2023/10/21 10:49:08;;;;;;;4.55;2.35;;;1.40;99.90;;;;;;5077269;28;20268;-82
2023/10/21 10:51:43;;;;;;;3.25;2.15;;;1.40;99.90;;;;;;5093349;28;20246;-84
2023/10/21 10:54:17;;;;;;;4.07;2.20;;;1.40;99.90;;;;;;5065602;28;20576;-82
2023/10/21 10:56:47;;;;;;;4.63;1.88;;;1.40;99.90;;;;;;5080864;28;20188;-83
2023/10/21 10:59:18;;;;;;;3.75;2.20;;;1.40;99.90;;;;;;5076582;28;20180;-83
2023/10/21 11:02:00;;;;;;;5.15;2.28;;;1.40;99.90;;;;;;5078711;28;20191;-83
2023/10/21 11:04:35;;;;;;;4.88;2.22;;;1.40;99.90;;;;;;5079584;28;20190;-82
2023/10/21 11:07:13;;;;;;;4.45;1.95;;;1.50;99.90;;;;;;5064074;28;20195;-83
2023/10/21 11:09:43;;;;;;;4.20;2.28;;;1.50;99.90;;;;;;5077727;28;20200;-82
2023/10/21 11:12:14;;;;;;;6.55;2.50;;;1.50;99.90;;;;;;5080630;28;20195;-83
2023/10/21 11:14:43;;;;;;;3.70;2.20;;;1.50;99.90;;;;;;5079710;28;20565;-82
2023/10/21 11:17:13;;;;;;;4.57;1.80;;;1.50;99.90;;;;;;5080407;28;20188;-83
2023/10/21 11:19:45;;;;;;;2.22;1.65;;;1.50;99.90;;;;;;5072810;28;20658;-83
2023/10/21 11:22:26;;;;;;;5.25;2.38;;;1.60;99.90;;;;;;5075871;28;20185;-83
2023/10/21 11:25:04;;;;;;;5.30;1.92;;;1.60;99.90;;;;;;5072626;28;20207;-82
2023/10/21 11:27:36;;;;;;;4.07;2.17;;;1.60;99.90;;;;;;5083801;28;20497;-83
2023/10/21 11:30:08;;;;;;;3.85;2.22;;;1.70;99.90;;;;;;5083652;28;20209;-82
2023/10/21 11:32:39;;;;;;;3.17;2.20;;;1.70;99.90;;;;;;5080963;28;20435;-84
2023/10/21 11:35:14;;;;;;;3.90;2.17;;;1.70;99.90;;;;;;5082328;28;20292;-83
2023/10/21 11:37:44;;;;;;;2.90;1.80;;;1.70;99.90;;;;;;5083424;28;20215;-83
2023/10/21 11:40:21;;;;;;;2.63;1.67;;;1.80;99.90;;;;;;5083634;28;20217;-82
2023/10/21 11:43:01;;;;;;;2.97;2.28;;;1.70;99.90;;;;;;5065747;28;20294;-83
2023/10/21 11:45:30;;;;;;;3.70;1.88;;;1.70;99.90;;;;;;5082115;28;20212;-83
2023/10/21 11:47:59;;;;;;;5.72;2.25;;;1.70;99.90;;;;;;5082692;28;20188;-83
2023/10/21 11:50:34;;;;;;;3.40;2.05;;;1.80;99.90;;;;;;5082453;28;20296;-82
2023/10/21 11:53:03;;;;;;;3.88;1.60;;;1.80;99.90;;;;;;5081208;28;20187;-83
2023/10/21 12:39:58;;;;;;;4.60;2.20;;;2.00;99.90;;;;;;5080160;28;20198;-83
2023/10/21 12:42:43;;;;;;;3.95;2.28;;;2.00;99.90;;;;;;5079413;28;20191;-82
2023/10/21 12:45:20;;;;;;;4.82;2.17;;;2.00;99.90;;;;;;5082394;28;20188;-82
2023/10/21 12:47:49;;;;;;;3.15;1.80;;;2.00;99.90;;;;;;5083694;28;20187;-83
2023/10/21 12:50:17;;;;;;;3.17;1.83;;;2.00;99.90;;;;;;5064863;28;20199;-83
2023/10/21 12:52:47;;;;;;;4.32;1.80;;;2.00;99.90;;;;;;5080438;28;20184;-83
2023/10/21 12:55:25;;;;;;;3.13;1.67;;;2.00;99.90;;;;;;5079602;28;20211;-84
2023/10/21 12:58:11;;;;;;;3.60;2.20;;;2.00;99.90;;;;;;5081430;28;20283;-81
2023/10/21 13:00:43;;;;;;;5.82;2.15;;;2.00;99.90;;;;;;5062920;28;20192;-81
2023/10/21 13:03:12;;;;;;;3.38;2.13;;;2.00;99.90;;;;;;5061101;28;20214;-82
2023/10/21 13:05:46;;;;;;;3.95;1.90;;;2.00;99.90;;;;;;5082767;28;20597;-82
2023/10/21 13:08:15;;;;;;;3.75;2.20;;;2.10;99.90;;;;;;5060786;28;20596;-84
2023/10/21 13:10:42;;;;;;;4.53;2.08;;;2.10;99.90;;;;;;5073430;28;20534;-82
2023/10/21 13:13:12;;;;;;;3.80;1.88;;;2.10;99.90;;;;;;5062948;28;20192;-83
2023/10/21 13:15:44;;;;;;;4.47;1.67;;;2.10;99.90;;;;;;5077612;28;20185;-84
2023/10/21 13:18:14;;;;;;;5.28;2.20;;;2.10;99.90;;;;;;5082667;28;20688;-82
2023/10/21 13:20:45;;;;;;;7.10;2.53;;;2.00;99.90;;;;;;5079891;28;20187;-82
2023/10/21 13:23:17;;;;;;;5.70;2.13;;;2.00;99.90;;;;;;5082483;28;20667;-83
2023/10/21 13:25:48;;;;;;;4.70;2.10;;;2.10;99.90;;;;;;5080109;28;20908;-83
2023/10/21 13:28:20;;;;;;;3.70;2.13;;;2.10;99.90;;;;;;5078729;28;20199;-84
2023/10/21 13:30:53;;;;;;;7.35;2.10;;;2.10;99.90;;;;;;5077706;28;20203;-83
2023/10/21 13:33:25;;;;;;;5.60;2.17;;;2.10;99.90;;;;;;5080199;28;20227;-83
2023/10/21 13:35:55;;;;;;;4.93;2.20;;;2.10;99.90;;;;;;5071964;28;20188;-83
2023/10/21 13:38:31;;;;;;;4.20;1.80;;;2.10;99.90;;;;;;5077736;28;20187;-83
2023/10/21 13:41:04;;;;;;;4.03;1.60;;;2.10;99.90;;;;;;5060253;28;20265;-83
2023/10/21 13:43:36;;;;;;;3.17;1.70;;;2.10;99.90;;;;;;5077753;28;20572;-82
2023/10/21 13:46:10;;;;;;;4.32;2.17;;;2.10;99.90;;;;;;5076502;28;20198;-83
2023/10/21 13:48:51;;;;;;;4.70;1.90;;;2.10;99.90;;;;;;5079945;28;20188;-82
2023/10/21 13:51:21;;;;;;;4.75;1.95;;;2.10;99.90;;;;;;5077132;28;20207;-83
2023/10/21 13:53:53;;;;;;;4.18;2.65;;;2.10;99.90;;;;;;5091747;28;20280;-82
2023/10/21 13:56:23;;;;;;;4.18;2.13;;;2.10;99.90;;;;;;5078701;28;20279;-83